Time;durP1;ratioP1;P1;durP2;ratioP2;P2;SDS_P1;SDS_P2;PMS_P1;PMS_P2;Temp;Humidity;BMP_temperature;BMP_pressure;BME280_temperature;BME280_humidity;BME280_pressure;Samples;Min_cycle;Max_cycle;Signal;HPM_P1;HPM_P2
2023/05/15 00:01:23;;;;;;;3.20;1.30;;;;;;;11.60;100.00;100083.77;104866;1260;60574;-48
2023/05/15 00:03:50;;;;;;;1.70;1.20;;;;;;;11.58;100.00;100085.85;104732;1261;75030;-46
2023/05/15 00:06:19;;;;;;;2.90;1.30;;;;;;;11.54;100.00;100085.48;104981;1260;68595;-46
2023/05/15 00:08:46;;;;;;;1.40;1.30;;;;;;;11.51;100.00;100085.44;105886;1260;71674;-49
2023/05/15 00:11:12;;;;;;;5.00;1.60;;;;;;;11.47;100.00;100085.14;104644;1260;60549;-48
2023/05/15 00:13:39;;;;;;;1.50;1.30;;;;;;;11.39;100.00;100084.76;104716;1259;60423;-48
2023/05/15 00:16:06;;;;;;;1.80;1.40;;;;;;;11.34;100.00;100084.79;104790;1265;60409;-49
2023/05/15 00:18:33;;;;;;;2.30;1.60;;;;;;;11.30;100.00;100086.05;104909;1258;67401;-48
2023/05/15 00:21:00;;;;;;;4.60;1.60;;;;;;;11.24;100.00;100080.25;104914;1259;72174;-48
2023/05/15 00:23:28;;;;;;;2.80;0.90;;;;;;;11.18;100.00;100083.04;104820;1257;61946;-48
2023/05/15 00:25:54;;;;;;;2.20;1.10;;;;;;;11.12;100.00;100086.36;104568;1260;61247;-49
2023/05/15 00:28:21;;;;;;;1.00;0.90;;;;;;;11.09;100.00;100085.06;104580;1260;60579;-47
2023/05/15 00:30:48;;;;;;;1.70;1.00;;;;;;;11.04;100.00;100086.89;104835;1259;68248;-49
2023/05/15 00:33:15;;;;;;;1.40;0.90;;;;;;;11.01;100.00;100085.95;106750;1260;72809;-48
2023/05/15 00:35:42;;;;;;;1.30;1.20;;;;;;;11.01;100.00;100086.68;105513;1257;62598;-49
2023/05/15 00:38:09;;;;;;;3.10;1.00;;;;;;;10.98;100.00;100085.71;104862;1259;60516;-48
2023/05/15 00:40:36;;;;;;;2.10;1.00;;;;;;;10.92;100.00;100081.52;104930;1255;72849;-49
2023/05/15 00:43:03;;;;;;;3.10;1.00;;;;;;;10.88;100.00;100077.02;104748;1261;67438;-49
2023/05/15 00:45:30;;;;;;;2.50;1.00;;;;;;;10.87;100.00;100073.48;104706;1257;72511;-48
2023/05/15 00:47:57;;;;;;;2.10;1.10;;;;;;;10.87;100.00;100075.46;104964;1262;61572;-49
2023/05/15 00:50:24;;;;;;;1.10;0.90;;;;;;;10.86;100.00;100074.24;105412;1260;60310;-47
2023/05/15 00:52:51;;;;;;;1.50;1.40;;;;;;;10.85;100.00;100072.86;104814;1261;74372;-47
2023/05/15 00:55:17;;;;;;;2.30;1.20;;;;;;;10.84;100.00;100074.85;104745;1255;68785;-47
2023/05/15 00:57:44;;;;;;;2.30;1.30;;;;;;;10.83;100.00;100072.23;104831;1260;73906;-49
2023/05/15 01:00:14;;;;;;;2.70;1.20;;;;;;;10.78;100.00;100067.41;108840;1257;60146;-48
2023/05/15 01:02:41;;;;;;;1.80;1.10;;;;;;;10.71;100.00;100063.61;108843;1259;61936;-49
2023/05/15 01:05:08;;;;;;;3.20;1.20;;;;;;;10.65;100.00;100065.67;108909;1257;73968;-48
2023/05/15 01:07:51;;;;;;;2.00;1.10;;;;;;;10.61;100.00;100063.52;108838;1257;67540;-48
2023/05/15 01:10:18;;;;;;;1.40;1.30;;;;;;;10.58;100.00;100064.35;104781;1262;70423;-49
2023/05/15 01:12:45;;;;;;;1.40;1.10;;;;;;;10.54;100.00;100064.14;104893;1256;60948;-48
2023/05/15 01:15:13;;;;;;;3.30;1.00;;;;;;;10.53;100.00;100060.27;104848;1257;61538;-48
2023/05/15 01:17:39;;;;;;;1.20;0.90;;;;;;;10.53;100.00;100062.94;104870;1257;74364;-46
2023/05/15 01:20:08;;;;;;;6.90;1.00;;;;;;;10.54;100.00;100064.18;108675;1260;69248;-48
2023/05/15 01:22:52;;;;;;;1.30;0.90;;;;;;;10.53;100.00;100064.73;106662;1260;73066;-47
2023/05/15 01:25:30;;;;;;;1.20;1.00;;;;;;;10.54;100.00;100068.48;108934;1258;61157;-48
2023/05/15 01:28:05;;;;;;;1.20;0.90;;;;;;;10.54;100.00;100066.49;108863;1257;60598;-48
2023/05/15 01:30:34;;;;;;;3.50;1.30;;;;;;;10.53;100.00;100068.15;106297;1260;72973;-46
2023/05/15 01:33:24;;;;;;;1.30;1.10;;;;;;;10.49;100.00;100067.77;108878;1254;69246;-48
2023/05/15 01:36:09;;;;;;;12.20;1.60;;;;;;;10.47;100.00;100067.50;108947;1255;71778;-48
2023/05/15 01:38:43;;;;;;;3.30;1.20;;;;;;;10.45;100.00;100069.06;105237;1256;60517;-48
2023/05/15 01:41:31;;;;;;;3.10;1.40;;;;;;;10.43;100.00;100067.89;105646;1260;61450;-49
2023/05/15 01:44:04;;;;;;;1.70;1.30;;;;;;;10.40;100.00;100063.31;105341;1257;72816;-45
2023/05/15 01:46:30;;;;;;;1.90;1.30;;;;;;;10.39;100.00;100061.98;105031;1258;68309;-51
2023/05/15 01:48:57;;;;;;;3.40;0.90;;;;;;;10.37;100.00;100063.30;105227;1260;71789;-50
2023/05/15 01:51:24;;;;;;;1.80;0.90;;;;;;;10.36;100.00;100064.40;105849;1257;60412;-47
2023/05/15 01:53:50;;;;;;;1.10;0.80;;;;;;;10.35;100.00;100065.34;104697;1256;60492;-46
2023/05/15 01:56:20;;;;;;;1.20;0.90;;;;;;;10.35;100.00;100067.52;105371;1257;73905;-46
2023/05/15 01:58:46;;;;;;;2.20;0.80;;;;;;;10.35;100.00;100065.19;105683;1262;69148;-49
2023/05/15 02:01:13;;;;;;;1.70;0.90;;;;;;;10.33;100.00;100062.90;104861;1257;72104;-47
2023/05/15 02:03:39;;;;;;;3.70;1.20;;;;;;;10.33;100.00;100064.88;104537;1262;60385;-48
2023/05/15 02:06:06;;;;;;;1.40;1.10;;;;;;;10.33;100.00;100067.41;104575;1261;61005;-48
2023/05/15 02:08:33;;;;;;;1.60;0.90;;;;;;;10.32;100.00;100064.92;104712;1260;72616;-48
2023/05/15 02:11:00;;;;;;;1.60;0.90;;;;;;;10.32;100.00;100067.98;104867;1258;66816;-48
2023/05/15 02:13:27;;;;;;;1.20;1.10;;;;;;;10.31;100.00;100065.17;105190;1260;72195;-48
2023/05/15 02:15:53;;;;;;;1.30;1.10;;;;;;;10.28;100.00;100067.64;105406;1260;60361;-47
2023/05/15 02:18:20;;;;;;;6.50;1.50;;;;;;;10.25;100.00;100069.36;104943;1257;60564;-47
2023/05/15 02:20:47;;;;;;;1.50;1.00;;;;;;;10.22;100.00;100070.55;104780;1258;73138;-48
2023/05/15 02:23:14;;;;;;;1.40;1.00;;;;;;;10.18;100.00;100071.23;104949;1260;68579;-48
2023/05/15 02:26:04;;;;;;;2.00;1.00;;;;;;;10.15;100.00;100074.23;104779;1260;60276;-47
2023/05/15 02:28:46;;;;;;;5.30;0.80;;;;;;;10.12;100.00;100074.02;105583;1259;62150;-47
2023/05/15 02:31:21;;;;;;;3.10;0.90;;;;;;;10.10;100.00;100073.90;104802;1257;60461;-46
2023/05/15 02:34:15;;;;;;;1.50;0.80;;;;;;;10.09;100.00;100073.03;104942;1256;75036;-48
2023/05/15 02:36:43;;;;;;;2.20;0.80;;;;;;;10.08;100.00;100073.98;104791;1257;67225;-48
2023/05/15 02:39:10;;;;;;;2.20;0.90;;;;;;;10.07;100.00;100075.63;105505;1256;71818;-48
2023/05/15 02:41:39;;;;;;;1.10;1.00;;;;;;;10.07;100.00;100069.88;105351;1258;60552;-47
2023/05/15 02:44:05;;;;;;;2.10;0.90;;;;;;;10.09;100.00;100068.91;104980;1257;59441;-47
2023/05/15 02:46:32;;;;;;;1.10;1.00;;;;;;;10.08;100.00;100063.05;104714;1256;74962;-49
2023/05/15 02:48:59;;;;;;;1.40;0.90;;;;;;;10.04;100.00;100059.98;104789;1262;68894;-48
2023/05/15 02:51:26;;;;;;;1.80;0.90;;;;;;;10.02;100.00;100060.45;104929;1258;71694;-47
2023/05/15 02:53:52;;;;;;;2.90;1.00;;;;;;;10.01;100.00;100062.27;104721;1257;60409;-48
2023/05/15 02:56:20;;;;;;;2.30;1.10;;;;;;;10.02;100.00;100059.90;104654;1261;60487;-48
2023/05/15 02:58:46;;;;;;;1.00;0.90;;;;;;;10.03;100.00;100062.35;104548;1257;74841;-50
2023/05/15 03:01:13;;;;;;;1.90;0.90;;;;;;;10.04;100.00;100065.52;104503;1257;67645;-48
2023/05/15 03:03:40;;;;;;;3.20;0.80;;;;;;;10.05;100.00;100065.31;104345;1257;71174;-48
2023/05/15 03:06:06;;;;;;;4.60;0.90;;;;;;;10.06;100.00;100066.89;104763;1258;60708;-48
2023/05/15 03:08:33;;;;;;;1.80;0.80;;;;;;;10.08;100.00;100067.89;104494;1257;59827;-48
2023/05/15 03:11:00;;;;;;;1.00;0.70;;;;;;;10.11;100.00;100069.02;104496;1257;74558;-49
2023/05/15 03:13:27;;;;;;;1.20;0.70;;;;;;;10.15;100.00;100064.52;104672;1257;67941;-49
2023/05/15 03:15:54;;;;;;;1.00;0.80;;;;;;;10.20;100.00;100066.17;104669;1257;72244;-48
2023/05/15 03:18:20;;;;;;;1.60;1.00;;;;;;;10.25;100.00;100069.20;104535;1256;62779;-48
2023/05/15 03:20:48;;;;;;;0.80;0.70;;;;;;;10.25;100.00;100069.34;104737;1256;60649;-48
2023/05/15 03:23:14;;;;;;;1.50;0.70;;;;;;;10.21;100.00;100067.70;105851;1258;74385;-46
2023/05/15 03:25:41;;;;;;;0.70;0.60;;;;;;;10.21;100.00;100068.96;104691;1260;66001;-48
2023/05/15 03:28:08;;;;;;;1.00;0.80;;;;;;;10.24;100.00;100072.09;104646;1259;60349;-49
2023/05/15 03:30:34;;;;;;;1.20;0.80;;;;;;;10.31;100.00;100079.89;105009;1260;60537;-47
2023/05/15 03:33:02;;;;;;;1.50;0.70;;;;;;;10.37;100.00;100079.77;104950;1259;60801;-48
2023/05/15 03:35:31;;;;;;;0.80;0.70;;;;;;;10.45;100.00;100082.30;105813;1259;75179;-46
2023/05/15 03:37:57;;;;;;;4.00;0.90;;;;;;;10.53;100.00;100081.95;106221;1257;67999;-46
2023/05/15 03:40:24;;;;;;;1.60;0.90;;;;;;;10.61;100.00;100082.88;105097;1257;71771;-46
2023/05/15 03:42:52;;;;;;;1.10;1.00;;;;;;;10.69;100.00;100090.81;105023;1260;61060;-46
2023/05/15 03:45:20;;;;;;;3.50;0.80;;;;;;;10.76;100.00;100088.71;105855;1260;60423;-47
2023/05/15 03:47:47;;;;;;;14.00;1.30;;;;;;;10.84;100.00;100090.87;105237;1260;72843;-46
2023/05/15 03:50:17;;;;;;;17.30;1.60;;;;;;;10.91;100.00;100087.83;107188;1259;65753;-48
2023/05/15 03:52:44;;;;;;;10.20;1.20;;;;;;;11.00;100.00;100089.74;106516;1256;71978;-50
2023/05/15 03:55:11;;;;;;;4.80;0.80;;;;;;;11.10;100.00;100088.96;104958;1257;60526;-45
2023/05/15 03:57:40;;;;;;;6.10;1.30;;;;;;;11.21;100.00;100091.50;104731;1257;60865;-49
2023/05/15 04:00:10;;;;;;;8.90;1.20;;;;;;;11.33;100.00;100091.34;104885;1257;73345;-47
2023/05/15 04:02:41;;;;;;;3.00;0.70;;;;;;;11.45;100.00;100088.97;108939;1255;69081;-48
2023/05/15 04:05:08;;;;;;;1.20;0.90;;;;;;;11.57;100.00;100090.02;108878;1255;73472;-48
2023/05/15 04:07:35;;;;;;;1.00;0.80;;;;;;;11.68;100.00;100093.27;108881;1255;62226;-48
2023/05/15 04:10:02;;;;;;;1.00;0.80;;;;;;;11.79;100.00;100095.86;108914;1256;60677;-48
2023/05/15 04:12:31;;;;;;;1.80;0.70;;;;;;;11.90;100.00;100096.02;108890;1255;73036;-49
2023/05/15 04:15:24;;;;;;;3.20;0.80;;;;;;;12.04;100.00;100096.58;108918;1256;67049;-49
2023/05/15 04:17:52;;;;;;;2.20;0.80;;;;;;;12.27;100.00;100099.25;106313;1255;71745;-46
2023/05/15 04:20:20;;;;;;;3.10;0.70;;;;;;;12.50;100.00;100098.05;108850;1255;60741;-49
2023/05/15 04:22:47;;;;;;;1.80;0.70;;;;;;;12.70;100.00;100100.27;108907;1254;58976;-48
2023/05/15 04:25:14;;;;;;;0.70;0.70;;;;;;;12.87;100.00;100101.94;108929;1255;73077;-48
2023/05/15 04:27:42;;;;;;;1.00;0.80;;;;;;;13.02;100.00;100098.25;108177;1257;68965;-49
2023/05/15 04:30:09;;;;;;;1.00;0.80;;;;;;;13.15;100.00;100100.96;108852;1255;72125;-50
2023/05/15 04:32:38;;;;;;;2.70;0.90;;;;;;;13.27;100.00;100098.77;108881;1254;58272;-49
2023/05/15 04:35:07;;;;;;;0.90;0.80;;;;;;;13.36;100.00;100096.98;107968;1257;59094;-46
2023/05/15 04:37:40;;;;;;;1.50;0.80;;;;;;;13.46;100.00;100096.64;108880;1256;71869;-48
2023/05/15 04:40:08;;;;;;;0.90;0.80;;;;;;;13.56;100.00;100097.90;108847;1255;68194;-49
2023/05/15 04:42:35;;;;;;;0.70;0.70;;;;;;;13.67;100.00;100095.64;108904;1256;71810;-49
2023/05/15 04:45:01;;;;;;;1.90;0.80;;;;;;;13.80;100.00;100096.52;105674;1259;60723;-47
2023/05/15 04:47:28;;;;;;;1.40;0.80;;;;;;;13.94;100.00;100092.99;104848;1258;60533;-49
2023/05/15 04:49:55;;;;;;;1.90;0.70;;;;;;;14.10;100.00;100093.36;104710;1256;72206;-49
2023/05/15 04:52:22;;;;;;;1.60;0.70;;;;;;;14.28;100.00;100091.08;104733;1258;67935;-48
2023/05/15 04:54:49;;;;;;;2.60;0.60;;;;;;;14.46;100.00;100096.53;104688;1260;60549;-47
2023/05/15 04:57:16;;;;;;;1.90;0.60;;;;;;;14.64;100.00;100098.55;105159;1258;60431;-46
2023/05/15 04:59:42;;;;;;;3.80;0.80;;;;;;;14.82;100.00;100094.58;104882;1258;60359;-49
2023/05/15 05:02:09;;;;;;;2.70;0.50;;;;;;;15.00;100.00;100095.41;104727;1260;74105;-48
2023/05/15 05:04:36;;;;;;;0.80;0.60;;;;;;;15.18;100.00;100096.14;104826;1260;62071;-50
2023/05/15 05:07:04;;;;;;;2.40;0.70;;;;;;;15.34;100.00;100097.45;104889;1258;60423;-45
2023/05/15 05:09:31;;;;;;;2.30;0.60;;;;;;;15.52;100.00;100098.56;104762;1258;60413;-47
2023/05/15 05:11:58;;;;;;;4.10;0.50;;;;;;;15.68;100.00;100094.86;105133;1258;60526;-48
2023/05/15 05:14:25;;;;;;;0.50;0.40;;;;;;;15.82;100.00;100093.88;105933;1254;73463;-50
2023/05/15 05:16:52;;;;;;;0.70;0.60;;;;;;;15.97;100.00;100093.14;104777;1258;67700;-49
2023/05/15 05:19:18;;;;;;;2.40;0.60;;;;;;;16.11;100.00;100089.83;104846;1256;73200;-49
2023/05/15 05:21:45;;;;;;;2.10;0.50;;;;;;;16.26;100.00;100090.83;105436;1258;61778;-47
2023/05/15 05:24:11;;;;;;;1.90;0.50;;;;;;;16.41;100.00;100088.05;104730;1255;60993;-46
2023/05/15 05:26:38;;;;;;;3.50;0.60;;;;;;;16.55;100.00;100097.94;104796;1258;74126;-50
2023/05/15 05:29:04;;;;;;;5.10;0.70;;;;;;;16.69;100.00;100100.84;104807;1261;66744;-50
2023/05/15 05:31:32;;;;;;;6.50;0.70;;;;;;;16.83;100.00;100099.52;104859;1255;72641;-50
2023/05/15 05:33:58;;;;;;;1.30;0.50;;;;;;;16.96;100.00;100098.39;104828;1256;60464;-50
2023/05/15 05:36:25;;;;;;;1.40;0.60;;;;;;;17.11;100.00;100097.77;104774;1260;60557;-50
2023/05/15 05:38:51;;;;;;;0.60;0.50;;;;;;;17.24;100.00;100092.86;105275;1255;73728;-48
2023/05/15 05:41:18;;;;;;;0.40;0.40;;;;;;;17.36;100.00;100095.21;104802;1258;61803;-47
2023/05/15 05:43:44;;;;;;;2.30;0.50;;;;;;;17.50;100.00;100096.27;104901;1258;60636;-48
2023/05/15 05:46:11;;;;;;;5.30;0.70;;;;;;;17.64;100.00;100097.45;104787;1256;60470;-48
2023/05/15 05:48:38;;;;;;;1.00;0.50;;;;;;;17.77;100.00;100099.41;104860;1256;60413;-50
2023/05/15 05:51:04;;;;;;;1.00;0.50;;;;;;;17.90;100.00;100097.21;105361;1255;75723;-50
2023/05/15 05:53:31;;;;;;;3.40;1.10;;;;;;;18.02;100.00;100092.42;104799;1256;67342;-47
2023/05/15 05:55:58;;;;;;;2.90;0.50;;;;;;;18.16;100.00;100094.31;104880;1255;73375;-49
2023/05/15 05:58:24;;;;;;;1.00;0.50;;;;;;;18.29;100.00;100088.98;104808;1258;61613;-50
2023/05/15 06:00:52;;;;;;;2.30;0.50;;;;;;;18.43;100.00;100092.52;104933;1255;173290;-47
2023/05/15 06:05:11;;;;;;;2.50;0.50;;;;;;;18.68;100.00;100091.20;101648;1296;600234;-50
2023/05/15 06:07:39;;;;;;;4.90;0.50;;;;;;;18.80;100.00;100090.42;103840;1271;59704;-46
2023/05/15 06:10:08;;;;;;;0.60;0.50;;;;;;;18.94;100.00;100092.07;103635;1268;59138;-50
2023/05/15 06:12:35;;;;;;;0.40;0.40;;;;;;;19.05;100.00;100094.26;104828;1272;71153;-50
2023/05/15 06:15:01;;;;;;;0.40;0.40;;;;;;;19.17;100.00;100095.66;103738;1273;66382;-51
2023/05/15 06:17:28;;;;;;;2.20;0.40;;;;;;;19.30;100.00;100095.41;103726;1270;71141;-50
2023/05/15 06:19:55;;;;;;;0.40;0.40;;;;;;;19.41;100.00;100096.31;103731;1267;200415;-49
2023/05/15 06:22:22;;;;;;;0.40;0.30;;;;;;;19.52;100.00;100091.64;103926;1270;59606;-48
2023/05/15 06:24:48;;;;;;;1.30;0.40;;;;;;;19.63;100.00;100090.19;103991;1267;72514;-50
2023/05/15 06:27:15;;;;;;;0.90;0.50;;;;;;;19.75;100.00;100090.56;103710;1267;66579;-49
2023/05/15 06:29:42;;;;;;;0.50;0.40;;;;;;;19.86;100.00;100087.48;103744;1265;74119;-51
2023/05/15 06:32:09;;;;;;;0.40;0.40;;;;;;;19.96;100.00;100088.39;103680;1270;61051;-51
2023/05/15 06:34:35;;;;;;;0.50;0.40;;;;;;;20.07;100.00;100085.54;104314;1264;62186;-47
2023/05/15 06:37:02;;;;;;;0.40;0.40;;;;;;;20.17;100.00;100082.73;104231;1268;73475;-48
2023/05/15 06:39:29;;;;;;;1.80;0.30;;;;;;;20.27;100.00;100080.58;104382;1266;68810;-49
2023/05/15 06:42:00;;;;;;;2.50;0.40;;;;;;;20.38;100.00;100075.11;103928;1268;73374;-49
2023/05/15 06:44:28;;;;;;;2.70;0.60;;;;;;;20.48;100.00;100076.67;103853;1264;61687;-48
2023/05/15 06:46:55;;;;;;;2.00;0.50;;;;;;;20.56;100.00;100078.89;104186;1264;61007;-50
2023/05/15 06:49:22;;;;;;;2.60;0.40;;;;;;;20.66;100.00;100078.58;104168;1265;72290;-50
2023/05/15 06:51:49;;;;;;;2.90;0.50;;;;;;;20.75;100.00;100079.21;104068;1262;66920;-50
2023/05/15 06:54:16;;;;;;;1.80;0.40;;;;;;;20.85;100.00;100073.70;105195;1263;74841;-51
2023/05/15 06:56:43;;;;;;;0.70;0.40;;;;;;;20.94;100.00;100077.81;105571;1263;59704;-49
2023/05/15 06:59:10;;;;;;;5.80;0.40;;;;;;;21.03;100.00;100072.99;104339;1264;60429;-49
2023/05/15 07:01:37;;;;;;;2.20;0.40;;;;;;;21.13;100.00;100074.71;104153;1266;75456;-49
2023/05/15 07:04:04;;;;;;;2.80;0.30;;;;;;;21.25;100.00;100071.53;104105;1262;69184;-49
2023/05/15 07:06:31;;;;;;;1.00;0.40;;;;;;;21.34;100.00;100072.29;104276;1267;74994;-49
2023/05/15 07:08:58;;;;;;;1.70;0.40;;;;;;;21.43;100.00;100071.19;104450;1257;61211;-49
2023/05/15 07:11:25;;;;;;;1.40;0.40;;;;;;;21.52;100.00;100072.94;104381;1258;61109;-51
2023/05/15 07:13:52;;;;;;;4.10;0.40;;;;;;;21.60;100.00;100070.96;108573;1258;75049;-51
2023/05/15 07:16:19;;;;;;;0.80;0.40;;;;;;;21.68;100.00;100068.73;108545;1257;68265;-48
2023/05/15 07:18:45;;;;;;;0.60;0.40;;;;;;;21.76;100.00;100065.67;108519;1258;70850;-50
2023/05/15 07:21:12;;;;;;;1.20;0.40;;;;;;;21.83;100.00;100062.08;108555;1257;60528;-49
2023/05/15 07:23:39;;;;;;;0.50;0.40;;;;;;;21.90;100.00;100061.84;108487;1257;62502;-50
2023/05/15 07:26:06;;;;;;;1.30;0.50;;;;;;;21.96;100.00;100060.73;108622;1257;73231;-50
2023/05/15 07:28:39;;;;;;;2.50;0.40;;;;;;;22.05;100.00;100056.48;108561;1257;65538;-50
2023/05/15 07:31:06;;;;;;;0.90;0.40;;;;;;;22.13;100.00;100047.72;108630;1258;73316;-49
2023/05/15 07:33:33;;;;;;;1.30;0.40;;;;;;;22.20;100.00;100049.05;106212;1259;61474;-50
2023/05/15 07:36:00;;;;;;;4.40;0.50;;;;;;;22.29;100.00;100050.63;104332;1257;62187;-51
2023/05/15 07:38:27;;;;;;;2.30;0.50;;;;;;;22.36;100.00;100048.88;104518;1257;72083;-51
2023/05/15 07:40:54;;;;;;;1.80;0.60;;;;;;;22.39;100.00;100044.34;104200;1263;67982;-49
2023/05/15 07:43:20;;;;;;;1.10;0.40;;;;;;;22.43;100.00;100040.87;104251;1264;73530;-50
2023/05/15 07:45:47;;;;;;;1.20;0.60;;;;;;;22.48;100.00;100035.66;103916;1259;59743;-49
2023/05/15 07:48:15;;;;;;;0.70;0.50;;;;;;;22.55;100.00;100028.63;104073;1258;61277;-50
2023/05/15 07:50:44;;;;;;;0.90;0.50;;;;;;;22.62;100.00;100024.48;106351;1262;72229;-50
2023/05/15 07:53:12;;;;;;;0.50;0.40;;;;;;;22.69;100.00;100019.05;104355;1258;69036;-51
2023/05/15 07:55:39;;;;;;;2.00;0.60;;;;;;;22.77;100.00;100013.20;105516;1261;73665;-51
2023/05/15 07:58:07;;;;;;;1.60;0.50;;;;;;;22.86;100.00;100011.64;104396;1263;60439;-50
2023/05/15 08:00:33;;;;;;;0.90;0.60;;;;;;;22.93;100.00;100007.65;104412;1257;61362;-50
2023/05/15 08:03:00;;;;;;;1.50;0.40;;;;;;;23.01;100.00;100008.68;104463;1260;73597;-49
2023/05/15 08:05:28;;;;;;;0.60;0.40;;;;;;;23.10;100.00;100006.19;104513;1260;68903;-47
2023/05/15 08:07:55;;;;;;;3.80;0.60;;;;;;;23.17;100.00;99992.69;104712;1263;73984;-49
2023/05/15 08:10:22;;;;;;;5.30;0.60;;;;;;;23.23;100.00;99988.61;105071;1261;59512;-50
2023/05/15 08:12:49;;;;;;;2.10;0.70;;;;;;;23.31;100.00;99984.93;104337;1257;59979;-49
2023/05/15 08:15:16;;;;;;;0.90;0.50;;;;;;;23.38;100.00;99976.87;104846;1258;73922;-50
2023/05/15 08:17:43;;;;;;;2.20;0.90;;;;;;;23.46;100.00;99967.13;104621;1264;65828;-51
2023/05/15 08:20:10;;;;;;;0.60;0.60;;;;;;;23.53;100.00;99950.94;104535;1260;74906;-51
2023/05/15 08:22:37;;;;;;;2.30;0.40;;;;;;;23.57;100.00;99946.66;104494;1259;59722;-50
2023/05/15 08:25:05;;;;;;;0.90;0.40;;;;;;;23.61;100.00;99938.40;104263;1258;62107;-49
2023/05/15 08:27:32;;;;;;;2.40;0.50;;;;;;;23.64;100.00;99931.47;104326;1257;75143;-52
2023/05/15 08:29:59;;;;;;;0.90;0.50;;;;;;;23.66;100.00;99925.92;104136;1263;65756;-49
2023/05/15 08:32:26;;;;;;;2.90;0.90;;;;;;;23.70;100.00;99918.64;104479;1258;74046;-48
2023/05/15 08:34:52;;;;;;;1.50;0.40;;;;;;;23.75;100.00;99904.48;104439;1263;63197;-52
2023/05/15 08:37:19;;;;;;;1.00;0.50;;;;;;;23.81;100.00;99898.93;104492;1257;60345;-50
2023/05/15 08:39:46;;;;;;;1.10;0.40;;;;;;;23.85;100.00;99883.17;104595;1257;75678;-50
2023/05/15 08:42:34;;;;;;;1.80;0.60;;;;;;;23.89;100.00;99874.48;104140;1263;68474;-50
2023/05/15 08:45:00;;;;;;;2.40;0.50;;;;;;;23.95;100.00;99862.41;105878;1258;75074;-49
2023/05/15 08:47:28;;;;;;;1.00;0.60;;;;;;;23.98;100.00;99841.36;104638;1263;62905;-50
2023/05/15 08:50:14;;;;;;;1.40;0.50;;;;;;;24.00;100.00;99836.34;105124;1257;60094;-49
2023/05/15 08:52:43;;;;;;;1.60;0.60;;;;;;;24.03;100.00;99826.34;104696;1257;74098;-52
2023/05/15 08:55:10;;;;;;;2.60;0.40;;;;;;;24.07;100.00;99816.98;104422;1263;66080;-50
2023/05/15 08:57:37;;;;;;;0.90;0.50;;;;;;;24.10;100.00;99807.84;106409;1262;71164;-51
2023/05/15 09:00:07;;;;;;;0.80;0.50;;;;;;;24.14;100.00;99789.31;104538;1263;60325;-52
2023/05/15 09:02:36;;;;;;;1.30;0.50;;;;;;;24.18;100.00;99764.86;104487;1263;60776;-49
2023/05/15 09:05:04;;;;;;;0.80;0.70;;;;;;;24.25;100.00;99764.54;104489;1263;77398;-50
2023/05/15 09:07:30;;;;;;;0.90;0.50;;;;;;;24.28;100.00;99762.88;104856;1259;69177;-49
2023/05/15 09:09:58;;;;;;;2.00;0.40;;;;;;;24.27;100.00;99759.70;104397;1264;74937;-51
2023/05/15 09:12:25;;;;;;;1.70;0.60;;;;;;;24.21;100.00;99754.84;104501;1264;59769;-51
2023/05/15 09:15:08;;;;;;;1.60;0.50;;;;;;;24.12;100.00;99756.27;104617;1257;60487;-46
2023/05/15 09:17:35;;;;;;;1.70;0.50;;;;;;;24.06;100.00;99753.85;104582;1264;75473;-52
2023/05/15 09:20:07;;;;;;;4.30;0.50;;;;;;;24.04;100.00;99751.05;104894;1264;69078;-48
2023/05/15 09:22:36;;;;;;;1.30;0.40;;;;;;;24.01;100.00;99750.67;104680;1258;74983;-48
2023/05/15 09:25:04;;;;;;;1.10;0.40;;;;;;;23.98;100.00;99749.33;104515;1257;59745;-49
2023/05/15 09:27:39;;;;;;;2.70;0.50;;;;;;;23.97;100.00;99744.44;105395;1257;60218;-50
2023/05/15 09:30:07;;;;;;;2.50;0.90;;;;;;;24.01;100.00;99741.44;104422;1257;71629;-48
2023/05/15 09:32:36;;;;;;;1.90;0.40;;;;;;;24.06;100.00;99741.96;106829;1257;66821;-51
2023/05/15 09:35:03;;;;;;;1.00;0.60;;;;;;;24.10;100.00;99743.98;104528;1264;73364;-52
2023/05/15 09:37:31;;;;;;;1.20;0.50;;;;;;;24.13;100.00;99741.13;103960;1259;59722;-51
2023/05/15 09:40:09;;;;;;;3.10;0.50;;;;;;;24.13;100.00;99738.72;104325;1257;60050;-52
2023/05/15 09:42:37;;;;;;;5.50;0.70;;;;;;;24.11;100.00;99736.16;108521;1257;74664;-52
2023/05/15 09:45:05;;;;;;;1.30;0.50;;;;;;;24.10;100.00;99739.27;108070;1257;67118;-48
2023/05/15 09:47:32;;;;;;;2.40;0.40;;;;;;;24.07;100.00;99744.16;104626;1257;75976;-50
2023/05/15 09:49:59;;;;;;;1.10;0.50;;;;;;;24.05;100.00;99737.21;104440;1264;60826;-52
2023/05/15 09:52:26;;;;;;;3.50;0.50;;;;;;;24.06;100.00;99731.40;104427;1258;62563;-53
2023/05/15 09:54:53;;;;;;;0.40;0.40;;;;;;;24.11;100.00;99737.25;104403;1257;71816;-47
2023/05/15 09:57:20;;;;;;;0.80;0.50;;;;;;;24.21;100.00;99736.73;104548;1259;69297;-51
2023/05/15 09:59:47;;;;;;;1.80;0.40;;;;;;;24.27;100.00;99738.27;104427;1259;75249;-51
2023/05/15 10:02:30;;;;;;;0.50;0.40;;;;;;;24.29;100.00;99736.89;104514;1257;62373;-47
2023/05/15 10:04:58;;;;;;;4.20;0.40;;;;;;;24.31;100.00;99733.81;108611;1257;60572;-51
2023/05/15 10:07:32;;;;;;;1.80;0.40;;;;;;;24.30;100.00;99725.97;108622;1257;72013;-51
2023/05/15 10:10:01;;;;;;;4.40;0.40;;;;;;;24.28;100.00;99726.92;108574;1261;66969;-52
2023/05/15 10:12:28;;;;;;;3.60;1.60;;;;;;;24.26;100.00;99729.92;108674;1259;73180;-51
2023/05/15 10:14:55;;;;;;;1.60;0.60;;;;;;;24.24;100.00;99725.59;108574;1259;61233;-52
2023/05/15 10:17:22;;;;;;;2.50;0.60;;;;;;;24.25;100.00;99719.40;108443;1257;59719;-50
2023/05/15 10:19:52;;;;;;;2.80;0.40;;;;;;;24.29;100.00;99717.15;108595;1257;75182;-50
2023/05/15 10:22:27;;;;;;;6.30;0.40;;;;;;;24.33;100.00;99719.45;108682;1257;66187;-51
2023/05/15 10:24:59;;;;;;;0.90;0.50;;;;;;;24.33;100.00;99717.26;108640;1257;72168;-49
2023/05/15 10:27:26;;;;;;;3.20;0.50;;;;;;;24.33;100.00;99716.13;108498;1258;59437;-51
2023/05/15 10:29:53;;;;;;;4.40;0.40;;;;;;;24.37;100.00;99713.21;108553;1257;60976;-53
2023/05/15 10:32:20;;;;;;;0.80;0.40;;;;;;;24.42;100.00;99704.71;108457;1264;72289;-52
2023/05/15 10:34:47;;;;;;;0.90;0.60;;;;;;;24.49;100.00;99704.48;108492;1257;65645;-50
2023/05/15 10:37:14;;;;;;;3.90;0.50;;;;;;;24.56;100.00;99711.17;108493;1258;74814;-49
2023/05/15 10:39:41;;;;;;;3.90;0.60;;;;;;;24.61;100.00;99712.77;108339;1257;58779;-52
2023/05/15 10:42:07;;;;;;;5.30;0.90;;;;;;;24.63;100.00;99708.89;108436;1257;60814;-50
2023/05/15 10:44:34;;;;;;;4.00;0.40;;;;;;;24.61;100.00;99708.70;108478;1257;75910;-51
2023/05/15 10:47:01;;;;;;;0.40;0.40;;;;;;;24.59;100.00;99704.22;108409;1257;66253;-52
2023/05/15 10:49:27;;;;;;;1.90;0.50;;;;;;;24.56;100.00;99704.33;107702;1260;71626;-49
2023/05/15 10:51:55;;;;;;;1.60;0.40;;;;;;;24.54;100.00;99702.17;104073;1261;61438;-51
2023/05/15 10:54:21;;;;;;;0.80;0.50;;;;;;;24.52;100.00;99700.16;104031;1259;60458;-50
2023/05/15 10:56:48;;;;;;;3.30;0.90;;;;;;;24.52;100.00;99697.05;104264;1257;73814;-52
2023/05/15 10:59:17;;;;;;;1.60;0.50;;;;;;;24.51;100.00;99694.79;104292;1258;68686;-52
2023/05/15 11:01:44;;;;;;;1.80;0.50;;;;;;;24.47;100.00;99692.23;104243;1265;72868;-51
2023/05/15 11:04:18;;;;;;;0.80;0.60;;;;;;;24.43;100.00;99682.80;104525;1260;61916;-48
2023/05/15 11:06:46;;;;;;;2.80;0.60;;;;;;;24.39;100.00;99683.02;104502;1260;61231;-52
2023/05/15 11:09:25;;;;;;;4.90;1.20;;;;;;;24.38;100.00;99679.15;104206;1263;76139;-52
2023/05/15 11:11:57;;;;;;;0.70;0.50;;;;;;;24.39;100.00;99674.80;104733;1261;68412;-50
2023/05/15 11:14:25;;;;;;;0.90;0.50;;;;;;;24.42;100.00;99665.68;104336;1263;73063;-49
2023/05/15 11:16:51;;;;;;;0.70;0.50;;;;;;;24.47;100.00;99656.70;104616;1261;62680;-51
2023/05/15 11:19:28;;;;;;;2.00;0.50;;;;;;;24.55;100.00;99651.44;104249;1259;61476;-53